Time;durP1;ratioP1;P1;durP2;ratioP2;P2;SDS_P1;SDS_P2;PMS_P1;PMS_P2;Temp;Humidity;BMP_temperature;BMP_pressure;BME280_temperature;BME280_humidity;BME280_pressure;Samples;Min_cycle;Max_cycle;Signal;HPM_P1;HPM_P2
2022/12/13 00:01:36;;;;;;;19.37;10.07;;;-1.00;99.90;;;;;;6188417;23;20204;-74
2022/12/13 00:04:07;;;;;;;17.50;9.50;;;-1.00;99.90;;;;;;6164560;23;20594;-74
2022/12/13 00:06:44;;;;;;;18.53;8.90;;;-1.00;99.90;;;;;;6187387;23;20255;-74
2022/12/13 00:09:17;;;;;;;16.30;8.73;;;-1.10;99.90;;;;;;6188603;23;20267;-74
2022/12/13 00:11:47;;;;;;;17.43;8.87;;;-1.10;99.90;;;;;;6188361;23;20182;-74
2022/12/13 00:14:15;;;;;;;17.87;9.37;;;-1.00;99.90;;;;;;6187847;23;20172;-74
2022/12/13 00:16:46;;;;;;;17.13;8.37;;;-0.90;99.90;;;;;;6188752;23;20193;-74
2022/12/13 00:19:20;;;;;;;14.80;8.30;;;-1.00;99.90;;;;;;6214834;23;20187;-74
2022/12/13 00:25:35;;;;;;;17.47;8.73;;;-1.00;99.90;;;;;;6094727;23;20640;-74
2022/12/13 00:28:03;;;;;;;15.80;8.60;;;-1.10;99.90;;;;;;6048316;23;20178;-74
2022/12/13 00:30:34;;;;;;;16.37;8.50;;;-1.00;99.90;;;;;;6071836;23;20177;-74
2022/12/13 00:33:05;;;;;;;16.47;8.60;;;-1.10;99.90;;;;;;6072155;23;20189;-75
2022/12/13 00:35:41;;;;;;;15.97;8.20;;;-1.00;99.90;;;;;;6071441;23;20197;-74
2022/12/13 00:38:09;;;;;;;16.27;8.87;;;-1.10;99.90;;;;;;6071962;23;20177;-73
2022/12/13 00:40:36;;;;;;;18.30;8.93;;;-1.10;99.90;;;;;;6072010;23;20171;-74
2022/12/13 00:43:06;;;;;;;14.70;8.47;;;-1.10;99.90;;;;;;6095962;23;20273;-74
2022/12/13 00:45:33;;;;;;;16.40;8.43;;;-1.00;99.90;;;;;;6095355;23;20264;-74
2022/12/13 00:48:01;;;;;;;15.90;8.47;;;-1.10;99.90;;;;;;6071568;23;20185;-75
2022/12/13 00:50:47;;;;;;;15.87;8.73;;;-1.10;99.90;;;;;;6071581;23;20193;-74
2022/12/13 00:53:15;;;;;;;14.77;8.47;;;-1.10;99.90;;;;;;6072034;23;20178;-74
2022/12/13 00:55:42;;;;;;;17.40;8.90;;;-1.10;99.90;;;;;;6046959;23;20724;-74
2022/12/13 00:58:10;;;;;;;16.43;9.27;;;-1.10;99.90;;;;;;6071962;23;20174;-75
2022/12/13 01:00:37;;;;;;;17.23;8.90;;;-1.10;99.90;;;;;;6047862;23;20201;-74
2022/12/13 01:03:19;;;;;;;15.20;8.97;;;-1.10;99.90;;;;;;6166816;23;20172;-74
2022/12/13 01:05:47;;;;;;;18.10;9.43;;;-1.10;99.90;;;;;;6190255;23;20563;-75
2022/12/13 01:08:38;;;;;;;15.90;9.33;;;-1.10;99.90;;;;;;6195058;23;20254;-74
2022/12/13 01:11:07;;;;;;;17.20;9.27;;;-1.10;99.90;;;;;;6165909;23;20172;-74
2022/12/13 01:13:35;;;;;;;17.53;9.30;;;-1.10;99.90;;;;;;6165307;23;20177;-75
2022/12/13 01:16:07;;;;;;;18.03;9.43;;;-1.10;99.90;;;;;;6189692;23;20224;-73
2022/12/13 01:18:36;;;;;;;16.83;8.87;;;-1.00;99.90;;;;;;6166016;23;20163;-74
2022/12/13 01:21:31;;;;;;;17.37;8.90;;;-1.00;99.90;;;;;;6190152;23;20181;-73
2022/12/13 01:24:14;;;;;;;21.73;9.93;;;-1.00;99.90;;;;;;6169202;23;20174;-75
2022/12/13 01:26:47;;;;;;;17.93;8.87;;;-1.00;99.90;;;;;;6166304;23;20210;-74
2022/12/13 01:29:21;;;;;;;19.23;9.27;;;-1.00;99.90;;;;;;6189727;23;20258;-74
2022/12/13 01:32:12;;;;;;;16.50;8.67;;;-1.00;99.90;;;;;;6216062;23;20186;-74
2022/12/13 01:34:39;;;;;;;16.10;8.80;;;-1.00;99.90;;;;;;6214983;23;20176;-75
2022/12/13 01:37:06;;;;;;;18.17;9.10;;;-0.90;99.90;;;;;;6216567;23;20211;-76
2022/12/13 01:39:33;;;;;;;18.27;9.70;;;-0.90;99.90;;;;;;6189906;23;20177;-76
2022/12/13 01:42:18;;;;;;;18.77;9.90;;;-0.90;99.90;;;;;;6189852;23;20180;-76
2022/12/13 01:45:03;;;;;;;19.23;9.57;;;-0.90;99.90;;;;;;6164973;23;20243;-76
2022/12/13 01:47:42;;;;;;;16.93;9.37;;;-0.90;99.90;;;;;;6165686;23;20168;-76
2022/12/13 01:50:23;;;;;;;15.90;8.83;;;-0.90;99.90;;;;;;6214177;23;20168;-76
2022/12/13 01:52:52;;;;;;;15.83;8.73;;;-1.00;99.90;;;;;;6189871;23;20549;-76
2022/12/13 01:55:21;;;;;;;15.87;8.80;;;-1.00;99.90;;;;;;6189456;23;20306;-76
2022/12/13 01:57:50;;;;;;;18.07;9.03;;;-1.10;99.90;;;;;;6165000;23;20269;-77
2022/12/13 02:00:18;;;;;;;16.03;8.87;;;-1.00;99.90;;;;;;6216067;23;20576;-76
2022/12/13 02:02:47;;;;;;;17.40;9.57;;;-1.00;99.90;;;;;;6216352;23;20167;-76
2022/12/13 02:05:24;;;;;;;15.90;8.57;;;-1.10;99.90;;;;;;6189443;23;20183;-76
2022/12/13 02:07:52;;;;;;;16.17;8.50;;;-1.10;99.90;;;;;;6190848;23;20166;-74
2022/12/13 02:10:19;;;;;;;18.37;9.03;;;-1.10;99.90;;;;;;6189892;23;20179;-74
2022/12/13 02:12:47;;;;;;;18.87;8.87;;;-1.10;99.90;;;;;;6165486;23;20524;-74
2022/12/13 02:15:16;;;;;;;15.47;9.07;;;-1.10;99.90;;;;;;6190163;23;20203;-73
2022/12/13 02:17:55;;;;;;;15.97;8.80;;;-1.10;99.90;;;;;;6189581;23;20676;-75
2022/12/13 02:21:13;;;;;;;17.27;9.00;;;-1.10;99.90;;;;;;6216396;23;20445;-74
2022/12/13 02:23:58;;;;;;;14.73;8.33;;;-1.10;99.90;;;;;;6099427;23;20505;-74
2022/12/13 02:26:52;;;;;;;15.73;8.20;;;-1.20;99.90;;;;;;6099492;23;20170;-73
2022/12/13 02:29:22;;;;;;;16.97;8.30;;;-1.20;99.90;;;;;;6124231;23;20176;-74
2022/12/13 02:32:44;;;;;;;16.57;8.63;;;-1.20;99.90;;;;;;6124104;23;20181;-74
2022/12/13 02:35:30;;;;;;;18.60;8.80;;;-1.20;99.90;;;;;;6013505;23;20282;-74
2022/12/13 02:38:09;;;;;;;18.03;8.87;;;-1.10;99.90;;;;;;6013749;23;20529;-73
2022/12/13 02:40:46;;;;;;;16.43;8.77;;;-1.10;99.90;;;;;;6037156;23;20262;-75
2022/12/13 02:43:22;;;;;;;17.47;8.97;;;-1.10;99.90;;;;;;6037174;23;20227;-73
2022/12/13 02:46:01;;;;;;;19.20;9.27;;;-1.10;99.90;;;;;;6013389;23;20181;-77
2022/12/13 02:48:35;;;;;;;16.97;9.23;;;-1.10;99.90;;;;;;6037108;23;20187;-76
2022/12/13 02:51:04;;;;;;;18.37;9.20;;;-1.10;99.90;;;;;;6013447;23;20186;-77
2022/12/13 02:53:33;;;;;;;16.20;9.03;;;-1.00;99.90;;;;;;6037412;23;20240;-75
2022/12/13 02:56:00;;;;;;;18.47;9.10;;;-1.00;99.90;;;;;;6036690;23;20291;-74
2022/12/13 02:58:34;;;;;;;14.23;8.07;;;-1.00;99.90;;;;;;6020992;23;20177;-75
2022/12/13 03:01:13;;;;;;;17.03;8.57;;;-1.00;99.90;;;;;;6094596;23;20259;-75
2022/12/13 03:04:17;;;;;;;17.10;8.10;;;-1.00;99.90;;;;;;6070225;23;20572;-75
2022/12/13 03:07:05;;;;;;;18.13;7.97;;;-1.00;99.90;;;;;;6094731;23;20221;-73
2022/12/13 03:10:00;;;;;;;15.97;8.23;;;-0.90;99.90;;;;;;6154679;23;20616;-72
2022/12/13 03:15:42;;;;;;;15.93;8.20;;;-1.00;99.90;;;;;;6188672;23;20188;-75
2022/12/13 03:18:14;;;;;;;17.03;8.53;;;-1.00;99.90;;;;;;6188818;23;20557;-75
2022/12/13 03:20:47;;;;;;;16.63;8.53;;;-1.00;99.90;;;;;;6188563;23;20172;-76
2022/12/13 03:23:16;;;;;;;15.63;8.20;;;-0.90;99.90;;;;;;6189082;23;20166;-77
2022/12/13 03:25:44;;;;;;;14.93;7.90;;;-0.90;99.90;;;;;;6188738;23;20507;-76
2022/12/13 03:28:11;;;;;;;17.63;8.53;;;-0.90;99.90;;;;;;6215428;23;20170;-76
2022/12/13 03:30:38;;;;;;;18.67;8.20;;;-0.90;99.90;;;;;;6188906;23;20247;-75
2022/12/13 03:33:05;;;;;;;15.60;8.80;;;-0.90;99.90;;;;;;6188722;23;20182;-73
2022/12/13 03:35:32;;;;;;;16.60;9.13;;;-0.80;99.90;;;;;;6189000;23;20197;-77
2022/12/13 03:38:13;;;;;;;17.07;8.90;;;-0.90;99.90;;;;;;6188634;23;20173;-78
2022/12/13 03:41:09;;;;;;;16.10;8.57;;;-0.90;99.90;;;;;;6188690;23;20178;-74
2022/12/13 03:43:36;;;;;;;17.17;9.10;;;-0.90;99.90;;;;;;6214863;23;20517;-77
2022/12/13 03:46:04;;;;;;;17.00;8.90;;;-0.90;99.90;;;;;;6188660;23;20174;-75
2022/12/13 03:48:31;;;;;;;17.43;9.60;;;-0.90;99.90;;;;;;6188713;23;20264;-76
2022/12/13 03:50:58;;;;;;;19.43;10.47;;;-0.90;99.90;;;;;;6189217;23;20171;-78
2022/12/13 03:53:25;;;;;;;21.97;11.00;;;-0.90;99.90;;;;;;6188602;23;20269;-77
2022/12/13 03:56:05;;;;;;;21.87;10.73;;;-0.90;99.90;;;;;;6165217;23;20205;-77
2022/12/13 03:58:33;;;;;;;17.87;9.17;;;-0.90;99.90;;;;;;6188619;23;20169;-76
2022/12/13 04:01:05;;;;;;;19.47;10.47;;;-0.90;99.90;;;;;;6188632;23;20177;-76
2022/12/13 04:03:33;;;;;;;19.37;10.33;;;-0.80;99.90;;;;;;6188621;23;20603;-75
2022/12/13 04:05:59;;;;;;;21.70;11.00;;;-0.90;99.90;;;;;;6189003;23;20248;-74
2022/12/13 04:08:26;;;;;;;19.33;10.67;;;-0.90;99.90;;;;;;6188627;23;20172;-72
2022/12/13 04:10:53;;;;;;;20.23;10.60;;;-0.80;99.90;;;;;;6188688;23;20177;-73
2022/12/13 04:13:32;;;;;;;18.37;10.20;;;-0.80;99.90;;;;;;6188736;23;20471;-73
2022/12/13 04:16:01;;;;;;;21.47;10.77;;;-0.90;99.90;;;;;;6188340;23;20191;-75
2022/12/13 04:18:28;;;;;;;21.10;11.27;;;-0.90;99.90;;;;;;6188658;23;20227;-75
2022/12/13 04:20:56;;;;;;;23.53;11.23;;;-0.90;99.90;;;;;;6215209;23;20195;-74
2022/12/13 04:23:23;;;;;;;25.60;11.77;;;-0.90;99.90;;;;;;6188659;23;20268;-73
2022/12/13 04:25:50;;;;;;;21.57;11.33;;;-0.80;99.90;;;;;;6188204;23;20500;-75
2022/12/13 04:28:17;;;;;;;21.73;11.50;;;-0.90;99.90;;;;;;6215073;23;20166;-75
2022/12/13 04:30:49;;;;;;;24.23;12.43;;;-0.90;99.90;;;;;;6188925;23;20626;-75
2022/12/13 04:33:20;;;;;;;20.93;11.67;;;-0.90;99.90;;;;;;6188579;23;20191;-73
2022/12/13 04:35:48;;;;;;;21.17;11.40;;;-0.90;99.90;;;;;;6188252;23;20285;-73
2022/12/13 04:38:15;;;;;;;22.33;11.00;;;-0.90;99.90;;;;;;6188340;23;20440;-74
2022/12/13 04:40:42;;;;;;;22.60;11.97;;;-1.00;99.90;;;;;;6188411;23;20168;-76
2022/12/13 04:43:09;;;;;;;24.70;12.57;;;-1.00;99.90;;;;;;6215742;23;20204;-76
2022/12/13 04:45:36;;;;;;;24.60;11.87;;;-1.00;99.90;;;;;;6215392;23;20200;-75
2022/12/13 04:48:03;;;;;;;25.73;12.60;;;-0.90;99.90;;;;;;6188572;23;20640;-77
2022/12/13 04:50:30;;;;;;;21.97;10.73;;;-0.90;99.90;;;;;;6188272;23;20185;-75
2022/12/13 04:52:57;;;;;;;24.57;12.13;;;-1.00;99.90;;;;;;6188198;23;20595;-77
2022/12/13 04:55:24;;;;;;;22.53;11.87;;;-1.00;99.90;;;;;;6187879;23;20618;-76
2022/12/13 04:57:51;;;;;;;27.00;12.20;;;-1.00;99.90;;;;;;6188430;23;20682;-79
2022/12/13 05:00:20;;;;;;;26.07;12.63;;;-1.00;99.90;;;;;;6215375;23;20470;-78
2022/12/13 05:02:46;;;;;;;21.93;10.73;;;-1.00;99.90;;;;;;6188305;23;20208;-78
2022/12/13 05:05:14;;;;;;;26.33;12.37;;;-1.00;99.90;;;;;;6188638;23;20484;-78
2022/12/13 05:07:41;;;;;;;23.67;12.40;;;-1.00;99.90;;;;;;6190270;23;20164;-77
2022/12/13 05:10:12;;;;;;;21.80;11.87;;;-1.10;99.90;;;;;;6216755;23;20626;-73
2022/12/13 05:12:59;;;;;;;25.40;12.07;;;-1.10;99.90;;;;;;6190394;23;20167;-75
2022/12/13 05:15:27;;;;;;;23.13;11.77;;;-1.10;99.90;;;;;;6189906;23;20178;-74
2022/12/13 05:17:58;;;;;;;23.53;12.10;;;-1.10;99.90;;;;;;6190055;23;20218;-76
2022/12/13 05:20:25;;;;;;;24.87;11.77;;;-1.20;99.90;;;;;;6216707;23;20556;-76
2022/12/13 05:22:55;;;;;;;24.40;11.83;;;-1.20;99.90;;;;;;6189910;23;20303;-74
2022/12/13 05:25:26;;;;;;;23.00;12.03;;;-1.20;99.90;;;;;;6216245;23;20170;-74
2022/12/13 05:27:53;;;;;;;21.67;10.83;;;-1.20;99.90;;;;;;6190749;23;20178;-74
2022/12/13 05:30:22;;;;;;;19.33;10.30;;;-1.20;99.90;;;;;;6190357;23;20186;-74
2022/12/13 05:32:49;;;;;;;21.63;11.77;;;-1.20;99.90;;;;;;6189781;23;20180;-76
2022/12/13 05:35:17;;;;;;;20.53;10.73;;;-1.20;99.90;;;;;;6189983;23;20267;-74
2022/12/13 05:37:52;;;;;;;22.27;11.17;;;-1.30;99.90;;;;;;6216328;23;20225;-74
2022/12/13 05:40:24;;;;;;;21.50;10.63;;;-1.30;99.90;;;;;;6189926;23;20174;-75
2022/12/13 05:42:51;;;;;;;19.27;10.30;;;-1.30;99.90;;;;;;6164821;23;20175;-75
2022/12/13 05:45:28;;;;;;;19.07;9.93;;;-1.30;99.90;;;;;;6189649;23;20163;-74
2022/12/13 05:47:55;;;;;;;21.57;10.10;;;-1.30;99.90;;;;;;6216400;23;20199;-75
2022/12/13 05:50:23;;;;;;;22.23;11.03;;;-1.30;99.90;;;;;;6189898;23;20170;-74
2022/12/13 05:52:51;;;;;;;21.37;10.80;;;-1.40;99.90;;;;;;6189868;23;20169;-75
2022/12/13 05:55:18;;;;;;;21.37;11.00;;;-1.40;99.90;;;;;;6216099;23;20247;-75
2022/12/13 05:57:45;;;;;;;19.53;10.70;;;-1.50;99.90;;;;;;6216660;23;20266;-75
2022/12/13 06:00:17;;;;;;;20.23;10.17;;;-1.50;99.90;;;;;;6189641;23;20207;-75
2022/12/13 06:02:57;;;;;;;22.27;10.63;;;-1.40;99.90;;;;;;6192727;23;20172;-75
2022/12/13 06:05:30;;;;;;;20.77;10.40;;;-1.40;99.90;;;;;;6189532;23;20488;-75
2022/12/13 06:07:57;;;;;;;19.20;10.33;;;-1.50;99.90;;;;;;6189634;23;20206;-74
2022/12/13 06:10:25;;;;;;;18.13;9.63;;;-1.50;99.90;;;;;;6189307;23;20183;-76
2022/12/13 06:13:04;;;;;;;16.83;9.57;;;-1.60;99.90;;;;;;6189496;23;20204;-75
2022/12/13 06:15:52;;;;;;;20.57;9.43;;;-1.50;99.90;;;;;;6215894;23;20173;-75
2022/12/13 06:18:31;;;;;;;18.03;9.27;;;-1.60;99.90;;;;;;6214567;23;20203;-75
2022/12/13 06:21:00;;;;;;;21.27;9.80;;;-1.60;99.90;;;;;;6189672;23;20173;-75
2022/12/13 06:23:29;;;;;;;20.00;9.90;;;-1.60;99.90;;;;;;6189557;23;20178;-76
2022/12/13 06:25:57;;;;;;;19.67;9.27;;;-1.60;99.90;;;;;;6189300;23;20265;-76
2022/12/13 06:28:23;;;;;;;20.83;9.43;;;-1.60;99.90;;;;;;6189460;23;20901;-76
2022/12/13 06:30:51;;;;;;;17.23;9.50;;;-1.70;99.90;;;;;;6189553;23;20173;-75
2022/12/13 06:33:18;;;;;;;17.47;9.47;;;-1.70;99.90;;;;;;6189748;23;20206;-75
2022/12/13 06:35:51;;;;;;;21.97;10.10;;;-1.70;99.90;;;;;;6214272;23;20561;-75
2022/12/13 06:38:18;;;;;;;15.83;9.40;;;-1.60;99.90;;;;;;6189300;23;20499;-74
2022/12/13 06:41:13;;;;;;;15.87;8.20;;;-1.70;99.90;;;;;;6189741;23;20254;-75
2022/12/13 06:43:45;;;;;;;17.13;8.87;;;-1.80;99.90;;;;;;6189329;23;20616;-74
2022/12/13 06:46:12;;;;;;;17.47;9.07;;;-1.80;99.90;;;;;;6189469;23;20501;-76
2022/12/13 06:48:40;;;;;;;16.43;8.87;;;-1.90;99.90;;;;;;6041185;23;20178;-76
2022/12/13 06:51:09;;;;;;;16.40;8.77;;;-1.80;99.90;;;;;;6041759;23;20497;-75
2022/12/13 06:53:38;;;;;;;17.30;8.47;;;-1.80;99.90;;;;;;6066260;23;20206;-77
2022/12/13 06:56:07;;;;;;;14.20;7.97;;;-1.90;99.90;;;;;;6042014;23;20229;-77
2022/12/13 06:58:35;;;;;;;16.27;8.47;;;-1.80;99.90;;;;;;6042449;23;20170;-78
2022/12/13 07:01:05;;;;;;;14.63;8.20;;;-1.80;99.90;;;;;;6042065;23;20616;-77
2022/12/13 07:03:41;;;;;;;13.87;7.83;;;-1.80;99.90;;;;;;6065754;23;20180;-77
2022/12/13 07:06:20;;;;;;;13.20;7.63;;;-1.90;99.90;;;;;;6095347;23;20263;-77
2022/12/13 07:08:50;;;;;;;13.23;7.60;;;-1.90;99.90;;;;;;6216639;23;20171;-79
2022/12/13 07:11:19;;;;;;;12.83;7.40;;;-1.90;99.90;;;;;;6216019;23;20246;-76
2022/12/13 07:13:46;;;;;;;14.60;8.07;;;-2.00;99.90;;;;;;6215820;23;20245;-74
2022/12/13 07:16:13;;;;;;;12.10;7.13;;;-1.90;99.90;;;;;;6189097;23;20186;-76
2022/12/13 07:18:40;;;;;;;13.03;7.30;;;-2.10;99.90;;;;;;6188661;23;20182;-74
2022/12/13 07:21:09;;;;;;;13.00;7.10;;;-2.00;99.90;;;;;;6189154;23;20167;-74
2022/12/13 07:23:49;;;;;;;13.43;6.83;;;-2.00;99.90;;;;;;6188810;23;20163;-75
2022/12/13 07:26:21;;;;;;;12.97;6.97;;;-2.00;99.90;;;;;;6213790;23;20178;-75
2022/12/13 07:28:48;;;;;;;11.40;6.73;;;-2.00;99.90;;;;;;6163615;23;20175;-74
2022/12/13 07:31:22;;;;;;;10.60;6.80;;;-2.10;99.90;;;;;;6189269;23;20257;-74
2022/12/13 07:33:50;;;;;;;12.73;7.20;;;-2.10;99.90;;;;;;6188758;23;20260;-74
2022/12/13 07:36:20;;;;;;;11.97;7.10;;;-2.10;99.90;;;;;;6188629;23;20270;-74
2022/12/13 07:38:51;;;;;;;12.03;6.93;;;-2.00;99.90;;;;;;6189395;23;20176;-72
2022/12/13 07:41:18;;;;;;;14.50;7.10;;;-2.10;99.90;;;;;;6188947;23;20170;-75
2022/12/13 07:43:50;;;;;;;12.97;6.90;;;-2.10;99.90;;;;;;6189184;23;20501;-74
2022/12/13 07:46:22;;;;;;;14.17;7.67;;;-2.10;99.90;;;;;;6188878;23;20168;-74
2022/12/13 07:49:03;;;;;;;12.23;6.77;;;-2.10;99.90;;;;;;6188934;23;20172;-73
2022/12/13 07:51:33;;;;;;;14.03;7.27;;;-2.10;99.90;;;;;;6188644;23;20230;-74
2022/12/13 07:53:59;;;;;;;12.37;7.13;;;-2.10;99.90;;;;;;6188878;23;20193;-75
2022/12/13 07:56:32;;;;;;;14.27;7.90;;;-2.10;99.90;;;;;;6188772;23;20563;-74
2022/12/13 07:58:59;;;;;;;13.00;7.77;;;-2.10;99.90;;;;;;6189209;23;20164;-75
2022/12/13 08:01:27;;;;;;;13.80;7.70;;;-2.00;99.90;;;;;;6215789;23;20168;-75
2022/12/13 08:03:55;;;;;;;13.10;7.50;;;-1.80;99.90;;;;;;6189173;23;20221;-74
2022/12/13 08:06:22;;;;;;;15.17;7.70;;;-1.90;99.90;;;;;;6215176;23;20174;-76
2022/12/13 08:08:50;;;;;;;15.17;7.87;;;-1.90;99.90;;;;;;6189180;23;20166;-75
2022/12/13 08:11:16;;;;;;;16.70;8.63;;;-1.90;99.90;;;;;;6188514;23;20617;-75
2022/12/13 08:13:43;;;;;;;13.83;8.17;;;-1.90;99.90;;;;;;6188742;23;20174;-75
2022/12/13 08:16:13;;;;;;;16.13;8.30;;;-2.00;99.90;;;;;;6188931;23;20241;-75
2022/12/13 08:18:57;;;;;;;13.90;8.30;;;-2.10;99.90;;;;;;6189078;23;20185;-75
2022/12/13 08:21:33;;;;;;;16.20;8.87;;;-2.00;99.90;;;;;;6189333;23;20174;-76
2022/12/13 08:24:19;;;;;;;16.17;8.70;;;-2.00;99.90;;;;;;6188306;23;20225;-76
2022/12/13 08:26:46;;;;;;;15.00;8.93;;;-2.10;99.90;;;;;;6188899;23;20178;-76
2022/12/13 08:29:14;;;;;;;16.43;9.33;;;-2.10;99.90;;;;;;6189124;23;20163;-75
2022/12/13 08:32:00;;;;;;;14.67;7.97;;;-2.10;99.90;;;;;;6188344;23;20175;-76
2022/12/13 08:34:28;;;;;;;17.40;9.23;;;-2.10;99.90;;;;;;6188578;23;20177;-75
2022/12/13 08:36:55;;;;;;;18.37;8.23;;;-2.10;99.90;;;;;;6188512;23;20186;-76
2022/12/13 08:39:35;;;;;;;18.27;8.93;;;-2.10;99.90;;;;;;6189285;23;20202;-74
2022/12/13 08:42:05;;;;;;;13.57;8.03;;;-2.10;99.90;;;;;;6190404;23;20539;-75
2022/12/13 08:44:48;;;;;;;18.67;9.07;;;-2.00;99.90;;;;;;6190533;23;20171;-75
2022/12/13 08:47:17;;;;;;;14.00;8.33;;;-2.00;99.90;;;;;;6190977;23;20175;-74
2022/12/13 08:49:55;;;;;;;15.37;8.13;;;-1.90;99.90;;;;;;6190341;23;20569;-75
2022/12/13 08:52:29;;;;;;;15.47;8.20;;;-1.90;99.90;;;;;;6190631;23;20182;-78
2022/12/13 08:54:56;;;;;;;15.93;8.57;;;-1.90;99.90;;;;;;6190177;23;20648;-76
2022/12/13 08:57:23;;;;;;;14.50;7.97;;;-1.90;99.90;;;;;;6217528;23;20506;-73
2022/12/13 08:59:50;;;;;;;16.10;8.67;;;-1.90;99.90;;;;;;6190490;23;20167;-76
2022/12/13 09:02:17;;;;;;;14.10;8.30;;;-1.90;99.90;;;;;;6165500;23;20507;-75
2022/12/13 09:04:44;;;;;;;16.73;8.83;;;-1.90;99.90;;;;;;6190867;23;20207;-76
2022/12/13 09:07:12;;;;;;;14.97;8.30;;;-1.80;99.90;;;;;;6217178;23;20173;-76
2022/12/13 09:09:39;;;;;;;13.57;7.93;;;-1.90;99.90;;;;;;6216659;23;20259;-76
2022/12/13 09:12:06;;;;;;;15.90;8.50;;;-1.90;99.90;;;;;;6217288;23;20155;-75
2022/12/13 09:14:37;;;;;;;13.57;7.67;;;-1.90;99.90;;;;;;6190529;23;20182;-75
2022/12/13 09:17:14;;;;;;;13.40;7.83;;;-2.00;99.90;;;;;;6215316;23;20207;-76
2022/12/13 09:19:51;;;;;;;12.77;7.83;;;-1.90;99.90;;;;;;6190189;23;20175;-76
2022/12/13 09:22:24;;;;;;;14.47;7.60;;;-2.00;99.90;;;;;;6190655;23;20164;-76
2022/12/13 09:25:01;;;;;;;12.77;7.53;;;-1.90;99.90;;;;;;6190287;23;20471;-76
2022/12/13 09:27:30;;;;;;;13.83;7.70;;;-1.90;99.90;;;;;;6217422;23;20655;-76
2022/12/13 09:30:07;;;;;;;11.97;6.90;;;-1.80;99.90;;;;;;6217604;23;20543;-74
2022/12/13 09:32:34;;;;;;;11.47;6.93;;;-1.90;99.90;;;;;;6217685;23;20499;-76
2022/12/13 09:35:01;;;;;;;13.90;7.73;;;-2.00;99.90;;;;;;6191342;23;20171;-75
2022/12/13 09:37:29;;;;;;;13.47;7.20;;;-2.00;99.90;;;;;;6216898;23;20535;-76
2022/12/13 09:39:56;;;;;;;15.13;7.60;;;-1.90;99.90;;;;;;6216692;23;20193;-75
2022/12/13 09:42:28;;;;;;;13.83;7.30;;;-1.90;99.90;;;;;;6189969;23;20179;-75
2022/12/13 09:45:02;;;;;;;13.13;7.60;;;-1.90;99.90;;;;;;6189656;23;20163;-75
2022/12/13 09:47:36;;;;;;;12.57;7.07;;;-1.90;99.90;;;;;;6190024;23;20210;-75
2022/12/13 09:50:25;;;;;;;12.20;7.20;;;-2.00;99.90;;;;;;6189963;23;20182;-74
2022/12/13 09:52:53;;;;;;;12.37;7.00;;;-1.90;99.90;;;;;;6215948;23;20185;-75
2022/12/13 09:55:36;;;;;;;12.03;6.53;;;-2.00;99.90;;;;;;6216050;23;20197;-74
2022/12/13 09:58:26;;;;;;;11.60;7.17;;;-2.00;99.90;;;;;;6189479;23;20194;-73
2022/12/13 10:00:55;;;;;;;11.80;7.03;;;-2.10;99.90;;;;;;6189070;23;20603;-78
2022/12/13 10:03:23;;;;;;;14.77;8.00;;;-2.00;99.90;;;;;;6189879;23;20684;-75
2022/12/13 10:06:17;;;;;;;11.63;7.00;;;-2.00;99.90;;;;;;6189507;23;20175;-74
2022/12/13 10:08:53;;;;;;;13.03;6.77;;;-2.10;99.90;;;;;;6189852;23;20193;-74
2022/12/13 10:11:25;;;;;;;11.80;7.27;;;-2.00;99.90;;;;;;6189807;23;20569;-77
2022/12/13 10:14:12;;;;;;;12.53;7.10;;;-2.00;99.90;;;;;;6189306;23;20167;-76
2022/12/13 10:16:49;;;;;;;12.03;6.83;;;-2.00;99.90;;;;;;6189353;23;20202;-75
2022/12/13 10:19:21;;;;;;;12.37;7.07;;;-2.00;99.90;;;;;;6189230;23;20357;-76
2022/12/13 10:21:56;;;;;;;13.20;7.23;;;-2.00;99.90;;;;;;6189910;23;20233;-75
2022/12/13 10:24:48;;;;;;;15.37;7.70;;;-1.90;99.90;;;;;;6189200;23;20171;-75
2022/12/13 10:27:39;;;;;;;12.97;7.47;;;-1.70;99.90;;;;;;6189096;23;20181;-78
2022/12/13 10:30:11;;;;;;;13.13;7.20;;;-1.80;99.90;;;;;;6123838;23;20211;-74
2022/12/13 10:32:53;;;;;;;12.87;7.33;;;-1.80;99.90;;;;;;6123709;23;20185;-75
2022/12/13 10:35:31;;;;;;;14.57;8.00;;;-1.80;99.90;;;;;;6099150;23;20177;-78
2022/12/13 10:38:00;;;;;;;13.67;7.67;;;-1.80;99.90;;;;;;6123543;23;20197;-77
2022/12/13 10:40:45;;;;;;;13.43;7.97;;;-1.90;99.90;;;;;;6099163;23;20181;-75
2022/12/13 10:43:19;;;;;;;13.03;7.50;;;-1.90;99.90;;;;;;6123734;23;20535;-75
2022/12/13 10:45:57;;;;;;;12.30;7.23;;;-1.90;99.90;;;;;;6123755;23;20197;-74
2022/12/13 10:48:46;;;;;;;12.30;7.13;;;-1.80;99.90;;;;;;6099595;23;20181;-75
2022/12/13 10:51:19;;;;;;;12.97;6.87;;;-1.80;99.90;;;;;;6124169;23;20519;-75
2022/12/13 10:53:55;;;;;;;12.63;7.33;;;-1.80;99.90;;;;;;6124090;23;20174;-74
2022/12/13 10:56:34;;;;;;;13.57;7.20;;;-1.90;99.90;;;;;;6099185;23;20201;-75
2022/12/13 10:59:32;;;;;;;13.80;7.40;;;-1.90;99.90;;;;;;6099513;23;20723;-75
2022/12/13 11:02:19;;;;;;;15.50;7.23;;;-1.90;99.90;;;;;;6037512;23;20179;-74
2022/12/13 11:04:46;;;;;;;14.03;7.50;;;-2.00;99.90;;;;;;6036756;23;20172;-75
2022/12/13 11:07:29;;;;;;;12.77;7.80;;;-2.00;99.90;;;;;;6067678;23;20178;-76
2022/12/13 11:09:57;;;;;;;14.87;7.60;;;-2.00;99.90;;;;;;6094704;23;20183;-74
2022/12/13 11:12:32;;;;;;;14.63;8.00;;;-2.00;99.90;;;;;;6070682;23;20173;-74
2022/12/13 11:15:02;;;;;;;14.80;7.90;;;-2.00;99.90;;;;;;6094494;23;20181;-75
2022/12/13 11:17:31;;;;;;;13.70;8.03;;;-2.10;99.90;;;;;;6069953;23;20215;-75
2022/12/13 11:20:08;;;;;;;15.53;8.43;;;-2.10;99.90;;;;;;6094589;23;20197;-76
2022/12/13 11:22:37;;;;;;;15.77;8.07;;;-2.00;99.90;;;;;;6070789;23;20177;-75
2022/12/13 11:25:08;;;;;;;16.73;8.23;;;-2.00;99.90;;;;;;6094846;23;20177;-75
2022/12/13 11:27:53;;;;;;;14.57;7.70;;;-2.00;99.90;;;;;;6070664;23;20174;-75
2022/12/13 11:30:29;;;;;;;15.23;8.30;;;-2.00;99.90;;;;;;6070643;23;20204;-73
2022/12/13 11:33:08;;;;;;;13.93;7.90;;;-2.00;99.90;;;;;;6070621;23;20177;-74
2022/12/13 11:35:55;;;;;;;16.23;8.57;;;-2.10;99.90;;;;;;6070412;23;20184;-75
2022/12/13 11:38:29;;;;;;;14.07;7.67;;;-2.00;99.90;;;;;;6096254;23;20523;-74
2022/12/13 11:41:03;;;;;;;15.13;7.93;;;-2.00;99.90;;;;;;6215440;23;20249;-75
2022/12/13 11:43:49;;;;;;;16.43;8.50;;;-2.00;99.90;;;;;;6188866;23;20185;-76
2022/12/13 11:46:27;;;;;;;17.43;7.83;;;-2.00;99.90;;;;;;6188549;23;20497;-75
2022/12/13 11:49:05;;;;;;;17.47;8.07;;;-2.00;99.90;;;;;;6188895;23;20166;-76
2022/12/13 11:51:43;;;;;;;14.13;8.10;;;-2.10;99.90;;;;;;6215350;23;20249;-74
2022/12/13 11:54:30;;;;;;;13.87;8.07;;;-2.10;99.90;;;;;;6190353;23;20168;-74
2022/12/13 11:57:06;;;;;;;14.67;8.17;;;-2.20;99.90;;;;;;6189937;23;20203;-74
2022/12/13 11:59:43;;;;;;;15.90;8.20;;;-2.30;99.90;;;;;;6189125;23;20173;-75
2022/12/13 12:02:24;;;;;;;17.53;8.70;;;-2.20;99.90;;;;;;6215721;23;20170;-75
2022/12/13 12:04:56;;;;;;;16.00;8.47;;;-2.00;99.90;;;;;;6189184;23;20190;-75
2022/12/13 12:07:36;;;;;;;15.00;8.47;;;-1.80;99.90;;;;;;6188866;23;20167;-75
2022/12/13 12:10:04;;;;;;;14.87;8.10;;;-1.90;99.90;;;;;;6214057;23;20177;-74
2022/12/13 12:12:34;;;;;;;15.23;8.30;;;-1.80;99.90;;;;;;6189092;23;20167;-74
2022/12/13 12:15:30;;;;;;;16.90;8.47;;;-1.70;99.90;;;;;;6189623;23;20172;-74
2022/12/13 12:17:57;;;;;;;14.30;7.83;;;-1.70;99.90;;;;;;6190922;23;20214;-76
2022/12/13 12:20:47;;;;;;;16.37;8.43;;;-1.70;99.90;;;;;;6190828;23;20163;-76
2022/12/13 12:23:30;;;;;;;14.23;7.97;;;-1.90;99.90;;;;;;6190952;23;20254;-76
2022/12/13 12:26:35;;;;;;;14.27;8.30;;;-1.90;99.90;;;;;;6217746;23;20170;-75
2022/12/13 12:29:09;;;;;;;16.30;8.40;;;-2.00;99.90;;;;;;6190625;23;20175;-75
2022/12/13 12:31:46;;;;;;;16.23;8.20;;;-2.10;99.90;;;;;;6191050;23;20170;-77
2022/12/13 12:34:33;;;;;;;13.60;7.70;;;-2.20;99.90;;;;;;6217647;23;20178;-76
2022/12/13 12:37:09;;;;;;;16.00;8.57;;;-2.10;99.90;;;;;;6190192;23;20174;-74
2022/12/13 12:40:05;;;;;;;14.97;8.53;;;-2.10;99.90;;;;;;6216861;23;20564;-76
2022/12/13 12:42:49;;;;;;;16.57;8.30;;;-2.10;99.90;;;;;;6125125;23;20173;-77
2022/12/13 12:45:40;;;;;;;17.50;8.30;;;-2.10;99.90;;;;;;6125209;23;20165;-73
2022/12/13 12:48:33;;;;;;;15.87;8.30;;;-2.20;99.90;;;;;;6125357;23;20599;-76
2022/12/13 12:51:42;;;;;;;15.87;8.13;;;-2.10;99.90;;;;;;6100794;23;20232;-76
2022/12/13 12:54:17;;;;;;;17.60;8.40;;;-2.10;99.90;;;;;;6127168;23;20260;-76
2022/12/13 12:57:16;;;;;;;16.27;8.00;;;-2.10;99.90;;;;;;6100196;23;20197;-76
2022/12/13 13:00:15;;;;;;;14.53;8.00;;;-2.00;99.90;;;;;;6100527;23;20201;-74
2022/12/13 13:02:56;;;;;;;15.90;7.73;;;-1.90;99.90;;;;;;6100391;23;20518;-73
2022/12/13 13:05:52;;;;;;;16.10;8.80;;;-1.80;99.90;;;;;;6100481;23;20201;-73
2022/12/13 13:08:42;;;;;;;15.97;8.57;;;-1.70;99.90;;;;;;6100972;23;20177;-75
2022/12/13 13:11:10;;;;;;;14.47;8.37;;;-1.50;99.90;;;;;;6124981;23;20180;-76
2022/12/13 13:13:57;;;;;;;16.53;8.03;;;-1.40;99.90;;;;;;6100716;23;20182;-77
2022/12/13 13:16:36;;;;;;;17.20;8.63;;;-1.40;99.90;;;;;;6076928;23;20174;-77
2022/12/13 13:19:15;;;;;;;15.07;8.47;;;-1.40;99.90;;;;;;6132303;23;20291;-77